Time;durP1;ratioP1;P1;durP2;ratioP2;P2;SDS_P1;SDS_P2;PMS_P1;PMS_P2;Temp;Humidity;BMP_temperature;BMP_pressure;BME280_temperature;BME280_humidity;BME280_pressure;Samples;Min_cycle;Max_cycle;Signal;HPM_P1;HPM_P2
2023/05/23 00:01:44;;;;;;;10.77;8.95;;;18.80;99.90;;;;;;4973330;28;20321;-73
2023/05/23 00:04:15;;;;;;;12.48;8.23;;;18.80;99.90;;;;;;4971000;28;20424;-74
2023/05/23 00:06:45;;;;;;;13.93;8.32;;;18.70;99.90;;;;;;4966867;28;20439;-74
2023/05/23 00:09:15;;;;;;;13.55;8.30;;;18.70;99.90;;;;;;4968281;28;20053;-75
2023/05/23 00:11:44;;;;;;;9.40;7.78;;;18.70;99.90;;;;;;4987588;28;20057;-74
2023/05/23 00:14:12;;;;;;;8.88;7.95;;;18.70;99.90;;;;;;4964893;28;20192;-75
2023/05/23 00:16:42;;;;;;;11.98;8.77;;;18.70;99.90;;;;;;4976150;28;20054;-73
2023/05/23 00:19:13;;;;;;;10.75;8.98;;;18.70;99.90;;;;;;4947168;28;20050;-73
2023/05/23 00:21:40;;;;;;;10.43;9.05;;;18.70;99.90;;;;;;4973539;28;20058;-73
2023/05/23 00:24:06;;;;;;;9.73;8.30;;;18.70;99.90;;;;;;4938095;28;20395;-73
2023/05/23 00:26:37;;;;;;;11.20;9.05;;;18.70;99.90;;;;;;4978533;28;20062;-72
2023/05/23 00:29:03;;;;;;;10.18;9.00;;;18.70;99.90;;;;;;4986989;28;20442;-73
2023/05/23 00:31:29;;;;;;;10.50;9.27;;;18.70;99.90;;;;;;4977493;28;20068;-73
2023/05/23 00:33:54;;;;;;;15.05;11.60;;;18.70;99.90;;;;;;4969170;28;20104;-73
2023/05/23 00:36:21;;;;;;;15.27;12.52;;;18.60;99.90;;;;;;4975168;28;20046;-72
2023/05/23 00:38:48;;;;;;;14.10;12.55;;;18.40;99.90;;;;;;4977565;28;20200;-74
2023/05/23 00:41:14;;;;;;;16.10;12.48;;;18.40;99.90;;;;;;4985272;28;20084;-73
2023/05/23 00:43:40;;;;;;;16.58;13.35;;;18.50;99.90;;;;;;4982445;28;20043;-73
2023/05/23 00:46:06;;;;;;;14.95;12.45;;;18.50;99.90;;;;;;4943049;28;20043;-73
2023/05/23 00:48:32;;;;;;;16.02;13.00;;;18.50;99.90;;;;;;4990911;28;20069;-73
2023/05/23 00:50:58;;;;;;;16.73;13.15;;;18.50;99.90;;;;;;4988651;28;20054;-73
2023/05/23 00:53:23;;;;;;;19.60;13.88;;;18.50;99.90;;;;;;4966147;28;20050;-73
2023/05/23 00:55:49;;;;;;;19.40;15.73;;;18.40;99.90;;;;;;4955931;28;20046;-73
2023/05/23 00:58:16;;;;;;;18.40;14.52;;;18.40;99.90;;;;;;4976896;28;20128;-73
2023/05/23 01:00:43;;;;;;;18.00;13.68;;;18.40;99.90;;;;;;4984929;28;20038;-73
2023/05/23 01:03:16;;;;;;;21.48;13.68;;;18.40;99.90;;;;;;4948867;28;20061;-73
2023/05/23 01:05:43;;;;;;;19.48;16.13;;;18.30;99.90;;;;;;4988587;28;20050;-72
2023/05/23 01:08:08;;;;;;;15.57;13.85;;;18.40;99.90;;;;;;4965660;28;20050;-73
2023/05/23 01:10:34;;;;;;;17.15;14.55;;;18.10;99.90;;;;;;4984387;28;20060;-73
2023/05/23 01:13:16;;;;;;;18.77;15.88;;;18.00;99.90;;;;;;4987096;28;20371;-73
2023/05/23 01:15:48;;;;;;;20.42;18.25;;;18.00;99.90;;;;;;4951168;28;20368;-73
2023/05/23 01:18:32;;;;;;;25.35;19.40;;;17.90;99.90;;;;;;4992162;28;20709;-73
2023/05/23 01:21:00;;;;;;;21.38;19.17;;;17.70;99.90;;;;;;4980648;28;20051;-73
2023/05/23 01:24:03;;;;;;;40.10;27.42;;;17.50;99.90;;;;;;4979541;28;20121;-73
2023/05/23 01:26:33;;;;;;;29.00;25.60;;;17.30;99.90;;;;;;4974656;28;20081;-72
2023/05/23 01:29:26;;;;;;;33.38;29.33;;;17.40;99.90;;;;;;4986680;28;20047;-73
2023/05/23 01:31:53;;;;;;;33.38;25.67;;;17.30;99.90;;;;;;4971699;28;20124;-72
2023/05/23 01:34:19;;;;;;;33.13;27.85;;;17.20;99.90;;;;;;4953358;28;20129;-72
2023/05/23 01:36:46;;;;;;;28.33;24.80;;;17.30;99.90;;;;;;4972906;28;20069;-73
2023/05/23 01:39:11;;;;;;;27.77;24.45;;;17.20;99.90;;;;;;4949637;28;20645;-73
2023/05/23 01:41:37;;;;;;;31.65;25.90;;;17.20;99.90;;;;;;4974893;28;20065;-73
2023/05/23 01:44:03;;;;;;;29.63;25.73;;;17.00;99.90;;;;;;4974083;28;20054;-73
2023/05/23 01:46:29;;;;;;;37.67;30.90;;;17.00;99.90;;;;;;4953531;28;20043;-73
2023/05/23 01:48:55;;;;;;;31.85;28.35;;;16.90;99.90;;;;;;4962858;28;20050;-73
2023/05/23 01:51:21;;;;;;;30.55;27.33;;;16.80;99.90;;;;;;4954547;28;20125;-73
2023/05/23 01:53:48;;;;;;;26.48;23.65;;;16.80;99.90;;;;;;4953829;28;20046;-72
2023/05/23 01:56:13;;;;;;;30.80;27.00;;;16.90;99.90;;;;;;4938698;28;20050;-72
2023/05/23 01:58:39;;;;;;;29.98;25.30;;;16.90;99.90;;;;;;4968647;28;20051;-73
2023/05/23 02:01:05;;;;;;;32.08;26.10;;;17.00;99.90;;;;;;4972223;28;20046;-73
2023/05/23 02:03:30;;;;;;;30.90;27.00;;;17.00;99.90;;;;;;4977757;28;20050;-73
2023/05/23 02:05:56;;;;;;;29.35;23.45;;;17.00;99.90;;;;;;4971850;28;20391;-73
2023/05/23 02:08:23;;;;;;;30.88;26.35;;;17.00;99.90;;;;;;4990124;28;20050;-73
2023/05/23 02:10:49;;;;;;;28.88;25.33;;;16.90;99.90;;;;;;4990551;28;20053;-72
2023/05/23 02:13:15;;;;;;;26.10;23.30;;;17.00;99.90;;;;;;4968965;28;20506;-72
2023/05/23 02:15:41;;;;;;;26.23;23.40;;;17.10;99.90;;;;;;4994362;28;20126;-72
2023/05/23 02:18:06;;;;;;;26.15;22.63;;;17.10;99.90;;;;;;4990624;28;20054;-72
2023/05/23 02:20:32;;;;;;;26.08;23.20;;;17.10;99.90;;;;;;4962065;28;20057;-72
2023/05/23 02:22:58;;;;;;;26.80;23.92;;;17.10;99.90;;;;;;4994760;28;20051;-73
2023/05/23 02:25:23;;;;;;;27.83;24.85;;;17.00;99.90;;;;;;4986164;28;20379;-72
2023/05/23 02:27:49;;;;;;;27.58;22.73;;;17.00;99.90;;;;;;4993805;28;20256;-72
2023/05/23 02:30:15;;;;;;;36.70;28.58;;;16.90;99.90;;;;;;4971666;28;20579;-73
2023/05/23 02:32:41;;;;;;;32.65;27.70;;;16.80;99.90;;;;;;4990367;28;20147;-72
2023/05/23 02:35:07;;;;;;;34.47;28.55;;;16.60;99.90;;;;;;4979588;28;20375;-72
2023/05/23 02:37:33;;;;;;;33.90;28.02;;;16.60;99.90;;;;;;4944992;28;20384;-72
2023/05/23 02:39:58;;;;;;;33.60;29.13;;;16.70;99.90;;;;;;4977442;28;20050;-72
2023/05/23 02:42:24;;;;;;;42.53;32.60;;;16.70;99.90;;;;;;4973598;28;20054;-72
2023/05/23 02:44:50;;;;;;;51.38;39.45;;;16.60;99.90;;;;;;4977052;28;20451;-72
2023/05/23 02:47:17;;;;;;;60.47;43.40;;;16.40;99.90;;;;;;4987744;28;20085;-72
2023/05/23 02:49:43;;;;;;;61.50;45.65;;;16.40;99.90;;;;;;4974288;28;20066;-72
2023/05/23 02:52:08;;;;;;;67.57;48.92;;;16.40;99.90;;;;;;4988845;28;20836;-72
2023/05/23 02:54:34;;;;;;;74.78;49.03;;;16.40;99.90;;;;;;4960432;28;20149;-72
2023/05/23 02:57:00;;;;;;;87.25;59.28;;;16.30;99.90;;;;;;4985396;28;20053;-72
2023/05/23 02:59:26;;;;;;;93.30;64.07;;;16.20;99.90;;;;;;4989126;28;20062;-72
2023/05/23 03:01:53;;;;;;;89.43;62.17;;;16.10;99.90;;;;;;4981962;28;20597;-72
2023/05/23 03:04:20;;;;;;;94.93;65.25;;;16.20;99.90;;;;;;4960309;28;20125;-72
2023/05/23 03:06:46;;;;;;;98.97;66.05;;;16.10;99.90;;;;;;4968348;28;20046;-72
2023/05/23 03:09:14;;;;;;;116.05;73.63;;;16.00;99.90;;;;;;4949762;28;20517;-72
2023/05/23 03:11:39;;;;;;;116.05;75.68;;;16.00;99.90;;;;;;4970774;28;20043;-73
2023/05/23 03:14:05;;;;;;;111.85;73.05;;;15.90;99.90;;;;;;4972999;28;20049;-73
2023/05/23 03:16:31;;;;;;;112.50;73.97;;;15.70;99.90;;;;;;4990635;28;20057;-73
2023/05/23 03:18:56;;;;;;;103.45;69.95;;;15.70;99.90;;;;;;4988254;28;20042;-73
2023/05/23 03:21:24;;;;;;;104.72;67.22;;;15.60;99.90;;;;;;4989533;28;20069;-73
2023/05/23 03:23:49;;;;;;;87.43;59.00;;;15.60;99.90;;;;;;4978998;28;20053;-73
2023/05/23 03:26:15;;;;;;;91.00;58.65;;;15.50;99.90;;;;;;4977830;28;20046;-73
2023/05/23 03:28:41;;;;;;;73.93;51.25;;;15.40;99.90;;;;;;4983482;28;20464;-73
2023/05/23 03:31:07;;;;;;;61.45;45.15;;;15.40;99.90;;;;;;4944955;28;20142;-73
2023/05/23 03:33:33;;;;;;;60.97;44.63;;;15.20;99.90;;;;;;4983988;28;20042;-73
2023/05/23 03:35:59;;;;;;;57.30;41.85;;;15.20;99.90;;;;;;4992909;28;20073;-73
2023/05/23 03:38:25;;;;;;;59.33;43.60;;;15.10;99.90;;;;;;4957624;28;20538;-73
2023/05/23 03:40:51;;;;;;;48.20;37.65;;;15.00;99.90;;;;;;4972564;28;20353;-73
2023/05/23 03:43:17;;;;;;;50.60;39.10;;;15.00;99.90;;;;;;4955735;28;20042;-73
2023/05/23 03:45:43;;;;;;;48.85;37.38;;;14.90;99.90;;;;;;4963711;28;20078;-73
2023/05/23 03:48:08;;;;;;;42.88;33.92;;;14.90;99.90;;;;;;4990549;28;20732;-73
2023/05/23 03:50:34;;;;;;;38.67;31.95;;;15.00;99.90;;;;;;4976245;28;20046;-73
2023/05/23 03:53:00;;;;;;;42.00;31.55;;;14.90;99.90;;;;;;4973435;28;20545;-72
2023/05/23 03:55:25;;;;;;;38.28;31.20;;;15.00;99.90;;;;;;4981351;28;20097;-73
2023/05/23 03:57:51;;;;;;;39.90;30.48;;;14.90;99.90;;;;;;4978286;28;20077;-72
2023/05/23 04:00:17;;;;;;;37.90;28.83;;;14.90;99.90;;;;;;4972313;28;20046;-73
2023/05/23 04:02:44;;;;;;;37.83;29.58;;;14.90;99.90;;;;;;4973959;28;20042;-73
2023/05/23 04:05:13;;;;;;;34.80;26.80;;;14.90;99.90;;;;;;4970663;28;20058;-73
2023/05/23 04:07:40;;;;;;;35.08;28.38;;;15.00;99.90;;;;;;4970374;28;20148;-73
2023/05/23 04:10:07;;;;;;;38.17;28.65;;;14.90;99.90;;;;;;4951827;28;20109;-72
2023/05/23 04:12:33;;;;;;;37.75;29.17;;;14.90;99.90;;;;;;4971576;28;20046;-72
2023/05/23 04:14:59;;;;;;;31.80;25.27;;;14.90;99.90;;;;;;4977951;28;20066;-72
2023/05/23 04:17:24;;;;;;;33.13;25.08;;;14.90;99.90;;;;;;4970650;28;20387;-73
2023/05/23 04:19:50;;;;;;;30.88;25.33;;;15.00;99.90;;;;;;4976031;28;20081;-73
2023/05/23 04:22:16;;;;;;;29.63;24.48;;;15.00;99.90;;;;;;4978335;28;20487;-73
2023/05/23 04:24:42;;;;;;;32.25;24.95;;;15.10;99.90;;;;;;4951466;28;20046;-73
2023/05/23 04:27:08;;;;;;;29.98;23.52;;;15.10;99.90;;;;;;4952441;28;20038;-73
2023/05/23 04:29:34;;;;;;;30.50;23.40;;;15.10;99.90;;;;;;4989720;28;20456;-72
2023/05/23 04:32:01;;;;;;;29.63;24.27;;;14.90;99.90;;;;;;4968473;28;20116;-72
2023/05/23 04:34:27;;;;;;;28.90;23.90;;;14.80;99.90;;;;;;4948824;28;20061;-72
2023/05/23 04:36:53;;;;;;;29.83;23.25;;;14.80;99.90;;;;;;4974530;28;20049;-72
2023/05/23 04:39:19;;;;;;;29.65;22.90;;;14.90;99.90;;;;;;4972009;28;20081;-72
2023/05/23 04:41:45;;;;;;;31.23;24.38;;;14.90;99.90;;;;;;4950381;28;20066;-72
2023/05/23 04:44:13;;;;;;;30.42;22.25;;;15.00;99.90;;;;;;4988876;28;20332;-72
2023/05/23 04:46:44;;;;;;;29.00;23.73;;;15.00;99.90;;;;;;4991465;28;20053;-72
2023/05/23 04:49:11;;;;;;;34.40;24.38;;;14.90;99.90;;;;;;4967787;28;20047;-72
2023/05/23 04:51:38;;;;;;;32.20;25.33;;;14.90;99.90;;;;;;4971163;28;20043;-72
2023/05/23 04:54:04;;;;;;;30.08;23.25;;;14.90;99.90;;;;;;4961025;28;20058;-72
2023/05/23 04:56:30;;;;;;;28.15;21.63;;;14.90;99.90;;;;;;4989574;28;20084;-72
2023/05/23 04:58:56;;;;;;;27.20;21.90;;;14.90;99.90;;;;;;4951849;28;20447;-73
2023/05/23 05:01:24;;;;;;;24.58;19.85;;;14.80;99.90;;;;;;4984602;28;20038;-73
2023/05/23 05:03:51;;;;;;;27.45;20.45;;;14.70;99.90;;;;;;4987983;28;20448;-73
2023/05/23 05:06:17;;;;;;;25.42;20.50;;;14.70;99.90;;;;;;4972551;28;20366;-73
2023/05/23 05:08:43;;;;;;;26.60;21.15;;;14.80;99.90;;;;;;4983040;28;20047;-73
2023/05/23 05:11:09;;;;;;;29.30;20.60;;;14.80;99.90;;;;;;4967982;28;20061;-73
2023/05/23 05:13:35;;;;;;;24.52;20.58;;;14.70;99.90;;;;;;4970879;28;20053;-73
2023/05/23 05:16:02;;;;;;;33.90;21.20;;;14.80;99.90;;;;;;4975887;28;20581;-73
2023/05/23 05:18:28;;;;;;;26.85;20.35;;;14.80;99.90;;;;;;4963354;28;20050;-73
2023/05/23 05:20:54;;;;;;;26.90;21.60;;;15.00;99.90;;;;;;4957603;28;20125;-73
2023/05/23 05:23:24;;;;;;;30.83;22.45;;;15.00;99.90;;;;;;4958110;28;20046;-73
2023/05/23 05:25:50;;;;;;;29.42;23.23;;;15.10;99.90;;;;;;4954260;28;20529;-73
2023/05/23 05:28:16;;;;;;;28.10;22.55;;;15.10;99.90;;;;;;4969025;28;20062;-73
2023/05/23 05:30:42;;;;;;;29.15;22.73;;;15.00;99.90;;;;;;4970128;28;20047;-73
2023/05/23 05:33:07;;;;;;;28.70;22.48;;;14.90;99.90;;;;;;4988151;28;20050;-73
2023/05/23 05:35:37;;;;;;;25.55;21.85;;;14.80;99.90;;;;;;4985319;28;20050;-73
2023/05/23 05:38:03;;;;;;;26.73;20.95;;;14.90;99.90;;;;;;4965761;28;20475;-73
2023/05/23 05:40:33;;;;;;;27.25;20.90;;;15.00;99.90;;;;;;4971055;28;20043;-73
2023/05/23 05:42:59;;;;;;;27.73;19.38;;;14.90;99.90;;;;;;4959337;28;20050;-73
2023/05/23 05:45:25;;;;;;;25.40;20.10;;;14.80;99.90;;;;;;4993168;28;20158;-73
2023/05/23 05:47:51;;;;;;;22.55;18.73;;;14.80;99.90;;;;;;4983405;28;20042;-73
2023/05/23 05:50:18;;;;;;;21.70;18.70;;;14.90;99.90;;;;;;4988621;28;20049;-73
2023/05/23 05:52:44;;;;;;;24.05;17.48;;;14.90;99.90;;;;;;4982454;28;20045;-74
2023/05/23 05:55:10;;;;;;;21.73;16.63;;;14.80;99.90;;;;;;4983662;28;20626;-73
2023/05/23 05:57:39;;;;;;;21.88;17.48;;;14.80;99.90;;;;;;4960462;28;20061;-73
2023/05/23 06:00:11;;;;;;;19.02;15.52;;;14.80;99.90;;;;;;4977797;28;20085;-73
2023/05/23 06:02:41;;;;;;;23.90;16.50;;;14.90;99.90;;;;;;4986190;28;20539;-73
2023/05/23 06:05:11;;;;;;;23.55;17.13;;;14.90;99.90;;;;;;4964449;28;20076;-73
2023/05/23 06:07:37;;;;;;;21.70;17.30;;;14.80;99.90;;;;;;4973514;28;20045;-73
2023/05/23 06:10:03;;;;;;;20.10;16.13;;;14.80;99.90;;;;;;4972576;28;20057;-73
2023/05/23 06:12:29;;;;;;;18.73;15.38;;;14.80;99.90;;;;;;4988989;28;20115;-73
2023/05/23 06:14:55;;;;;;;18.77;15.52;;;14.70;99.90;;;;;;4994367;28;20046;-72
2023/05/23 06:17:21;;;;;;;23.00;16.13;;;14.70;99.90;;;;;;4997311;28;20382;-72
2023/05/23 06:19:46;;;;;;;25.48;16.77;;;14.70;99.90;;;;;;4979501;28;20042;-73
2023/05/23 06:22:12;;;;;;;23.67;15.98;;;14.70;99.90;;;;;;4989249;28;20048;-73
2023/05/23 06:24:38;;;;;;;22.80;17.15;;;14.50;99.90;;;;;;4996974;28;20158;-73
2023/05/23 06:27:03;;;;;;;21.40;14.02;;;14.40;99.90;;;;;;4991785;28;20046;-73
2023/05/23 06:29:30;;;;;;;18.95;13.50;;;14.50;99.90;;;;;;4969703;28;20053;-73
2023/05/23 06:31:56;;;;;;;21.73;14.02;;;14.50;99.90;;;;;;4976303;28;20056;-73
2023/05/23 06:34:22;;;;;;;17.88;13.68;;;14.60;99.90;;;;;;4977469;28;20125;-73
2023/05/23 06:36:47;;;;;;;22.27;15.32;;;14.60;99.90;;;;;;4999609;28;20124;-73
2023/05/23 06:39:14;;;;;;;19.55;14.10;;;14.50;99.90;;;;;;4935678;28;20087;-73
2023/05/23 06:41:40;;;;;;;18.85;14.82;;;14.40;99.90;;;;;;4974506;28;20057;-73
2023/05/23 06:44:05;;;;;;;20.90;15.50;;;14.40;99.90;;;;;;4980346;28;20045;-73
2023/05/23 06:46:31;;;;;;;18.38;14.23;;;14.40;99.90;;;;;;4981605;28;20038;-73
2023/05/23 06:48:57;;;;;;;18.40;13.68;;;14.50;99.90;;;;;;4956014;28;20046;-73
2023/05/23 06:51:23;;;;;;;21.08;14.32;;;14.50;99.90;;;;;;4976322;28;20049;-73
2023/05/23 06:53:48;;;;;;;19.48;14.50;;;14.50;99.90;;;;;;4976699;28;20057;-73
2023/05/23 06:56:14;;;;;;;17.92;13.93;;;14.50;99.90;;;;;;4992574;28;20647;-73
2023/05/23 06:58:40;;;;;;;15.63;11.60;;;14.40;99.90;;;;;;4962162;28;20549;-73
2023/05/23 07:01:09;;;;;;;16.77;12.95;;;14.50;99.90;;;;;;4981564;28;20053;-73
2023/05/23 07:03:37;;;;;;;16.20;12.27;;;14.50;99.90;;;;;;4998028;28;20133;-73
2023/05/23 07:06:03;;;;;;;17.42;12.30;;;14.40;99.90;;;;;;4980286;28;20121;-73
2023/05/23 07:08:29;;;;;;;14.10;10.85;;;14.40;99.90;;;;;;4983079;28;20088;-73
2023/05/23 07:10:54;;;;;;;14.27;11.50;;;14.40;99.90;;;;;;4993166;28;20074;-73
2023/05/23 07:13:20;;;;;;;13.55;10.52;;;14.40;99.90;;;;;;4994953;28;20108;-73
2023/05/23 07:15:46;;;;;;;13.93;10.73;;;14.40;99.90;;;;;;5008766;28;20041;-73
2023/05/23 07:18:12;;;;;;;13.02;10.63;;;14.50;99.90;;;;;;4967211;28;20111;-73
2023/05/23 07:20:38;;;;;;;14.80;11.18;;;14.60;99.90;;;;;;4978921;28;20145;-73
2023/05/23 07:23:05;;;;;;;13.10;10.07;;;14.60;99.90;;;;;;4975432;28;20153;-73
2023/05/23 07:25:31;;;;;;;16.05;11.65;;;14.70;99.90;;;;;;4975425;28;20485;-73
2023/05/23 07:27:57;;;;;;;13.57;11.75;;;14.70;99.90;;;;;;5008236;28;20050;-73
2023/05/23 07:30:23;;;;;;;15.30;12.18;;;14.50;99.90;;;;;;4978740;28;20552;-73
2023/05/23 07:32:48;;;;;;;13.88;11.70;;;14.50;99.90;;;;;;4994834;28;20149;-73
2023/05/23 07:35:15;;;;;;;15.05;11.48;;;14.60;99.90;;;;;;4987598;28;20054;-73
2023/05/23 07:37:41;;;;;;;12.40;10.73;;;14.70;99.90;;;;;;5006497;28;20123;-73
2023/05/23 07:40:09;;;;;;;12.25;10.10;;;14.60;99.90;;;;;;4985878;28;20157;-73
2023/05/23 07:42:35;;;;;;;14.25;10.48;;;14.70;99.90;;;;;;5001723;28;20061;-73
2023/05/23 07:45:01;;;;;;;12.70;10.98;;;14.70;99.90;;;;;;4975772;28;20068;-73
2023/05/23 07:47:29;;;;;;;12.25;10.23;;;14.80;99.90;;;;;;4980513;28;20077;-74
2023/05/23 07:49:55;;;;;;;12.15;10.05;;;14.70;99.90;;;;;;4963686;28;20057;-74
2023/05/23 07:52:21;;;;;;;14.13;11.13;;;14.70;99.90;;;;;;4989246;28;20052;-74
2023/05/23 07:54:47;;;;;;;12.27;10.70;;;14.70;99.90;;;;;;4997883;28;20046;-74
2023/05/23 07:57:15;;;;;;;12.50;11.05;;;14.70;99.90;;;;;;4955623;28;20046;-74
2023/05/23 07:59:41;;;;;;;13.68;10.30;;;14.80;99.90;;;;;;4972307;28;20046;-74
2023/05/23 08:02:06;;;;;;;13.43;10.77;;;14.70;99.90;;;;;;4972256;28;20358;-74
2023/05/23 08:04:32;;;;;;;13.10;10.80;;;14.60;99.90;;;;;;4993568;28;20041;-74
2023/05/23 08:07:00;;;;;;;11.93;10.55;;;14.60;99.90;;;;;;4962487;28;20044;-74
2023/05/23 08:09:26;;;;;;;13.60;10.07;;;14.50;99.90;;;;;;4957492;28;20039;-73
2023/05/23 08:11:51;;;;;;;12.02;10.05;;;14.50;99.90;;;;;;5010672;28;20795;-74
2023/05/23 08:14:17;;;;;;;11.38;9.68;;;14.40;99.90;;;;;;4958674;28;20387;-74
2023/05/23 08:16:43;;;;;;;9.57;8.23;;;14.40;99.90;;;;;;4960761;28;20042;-75
2023/05/23 08:19:09;;;;;;;9.82;8.80;;;14.60;99.90;;;;;;4964858;28;20080;-74
2023/05/23 08:21:35;;;;;;;10.32;7.28;;;14.50;99.90;;;;;;4970858;28;20363;-74
2023/05/23 08:24:00;;;;;;;9.05;7.18;;;14.40;99.90;;;;;;4963288;28;20055;-74
2023/05/23 08:26:33;;;;;;;7.72;6.78;;;14.40;99.90;;;;;;4985285;28;20042;-74
2023/05/23 08:29:01;;;;;;;8.38;6.03;;;14.40;99.90;;;;;;4964219;28;20046;-74
2023/05/23 08:31:27;;;;;;;8.93;6.20;;;14.40;99.90;;;;;;4979595;28;20088;-74
2023/05/23 08:33:53;;;;;;;7.70;6.53;;;14.40;99.90;;;;;;4956926;28;20049;-73
2023/05/23 08:36:19;;;;;;;8.65;6.95;;;14.40;99.90;;;;;;4990657;28;20042;-74
2023/05/23 08:38:44;;;;;;;7.65;6.03;;;14.50;99.90;;;;;;4960358;28;20108;-74
2023/05/23 08:41:20;;;;;;;6.85;5.65;;;14.50;99.90;;;;;;4981040;28;20054;-74
2023/05/23 08:43:46;;;;;;;7.32;6.28;;;14.40;99.90;;;;;;4997096;28;20077;-74
2023/05/23 08:46:13;;;;;;;7.15;6.32;;;14.50;99.90;;;;;;4993714;28;20735;-74
2023/05/23 08:48:39;;;;;;;9.90;8.88;;;14.40;99.90;;;;;;4978728;28;20057;-74
2023/05/23 08:51:04;;;;;;;9.75;8.50;;;14.30;99.90;;;;;;4962109;28;20049;-74
2023/05/23 08:53:31;;;;;;;12.48;9.13;;;14.10;99.90;;;;;;4974797;28;20161;-74
2023/05/23 08:56:01;;;;;;;13.07;9.75;;;13.90;99.90;;;;;;4964012;28;20048;-75
2023/05/23 08:58:30;;;;;;;13.27;10.25;;;13.80;99.90;;;;;;4956136;28;20073;-75
2023/05/23 09:00:59;;;;;;;13.75;10.77;;;13.80;99.90;;;;;;4974848;28;20137;-74
2023/05/23 09:03:25;;;;;;;17.50;11.02;;;13.70;99.90;;;;;;4989604;28;20046;-74
2023/05/23 09:05:54;;;;;;;12.48;10.05;;;13.70;99.90;;;;;;4995722;28;20427;-74
2023/05/23 09:08:23;;;;;;;11.60;9.88;;;13.80;99.90;;;;;;4959851;28;20052;-74
2023/05/23 09:10:49;;;;;;;12.65;9.88;;;13.80;99.90;;;;;;4965046;28;20135;-74
2023/05/23 09:13:19;;;;;;;13.70;10.10;;;13.90;99.90;;;;;;4969527;28;20042;-74
2023/05/23 09:16:05;;;;;;;15.35;10.68;;;13.90;99.90;;;;;;4974000;28;20046;-74
2023/05/23 09:18:37;;;;;;;15.18;11.15;;;14.00;99.90;;;;;;4984306;28;20137;-74
2023/05/23 09:21:03;;;;;;;17.38;11.60;;;13.90;99.90;;;;;;4985352;28;20042;-73
2023/05/23 09:23:32;;;;;;;16.08;11.32;;;13.80;99.90;;;;;;4972343;28;20053;-74
2023/05/23 09:26:03;;;;;;;15.60;12.55;;;13.90;99.90;;;;;;4968914;28;20120;-74
2023/05/23 09:28:29;;;;;;;20.35;12.80;;;13.70;99.90;;;;;;4973983;28;20049;-74
2023/05/23 09:31:02;;;;;;;16.67;12.55;;;13.70;99.90;;;;;;4959321;28;20054;-74
2023/05/23 09:33:33;;;;;;;19.23;12.82;;;13.60;99.90;;;;;;4996827;28;20132;-74
2023/05/23 09:36:00;;;;;;;16.35;11.55;;;13.40;99.90;;;;;;4983940;28;20038;-73
2023/05/23 09:38:26;;;;;;;14.77;11.50;;;13.50;99.90;;;;;;4970350;28;20046;-73
2023/05/23 09:40:54;;;;;;;13.88;11.88;;;13.60;99.90;;;;;;4989176;28;20076;-73
2023/05/23 09:43:20;;;;;;;;;;;13.60;99.90;;;;;;5003930;28;20382;-73
2023/05/23 09:45:46;;;;;;;14.25;9.88;;;13.70;99.90;;;;;;4973062;28;19913;-73
2023/05/23 09:48:14;;;;;;;15.82;10.25;;;13.70;99.90;;;;;;4984196;28;20405;-73
2023/05/23 09:50:40;;;;;;;14.32;9.70;;;13.70;99.90;;;;;;4984103;28;20482;-73
2023/05/23 09:53:06;;;;;;;11.82;9.23;;;13.70;99.90;;;;;;4969321;28;20046;-73
2023/05/23 09:55:32;;;;;;;11.85;8.25;;;13.60;99.90;;;;;;4998841;28;20348;-73
2023/05/23 09:57:59;;;;;;;11.15;8.65;;;13.60;99.90;;;;;;4991343;28;20088;-73
2023/05/23 10:00:25;;;;;;;11.32;9.43;;;13.70;99.90;;;;;;4968109;28;20066;-73
2023/05/23 10:03:13;;;;;;;14.40;9.88;;;13.60;99.90;;;;;;4967729;28;20046;-73
2023/05/23 10:06:20;;;;;;;17.77;11.73;;;13.60;99.90;;;;;;4963985;28;20133;-73
2023/05/23 10:08:51;;;;;;;16.27;11.25;;;13.60;99.90;;;;;;4970294;28;20133;-72
2023/05/23 10:11:33;;;;;;;14.18;11.10;;;13.70;99.90;;;;;;4976337;28;20042;-72
2023/05/23 10:14:02;;;;;;;13.20;10.55;;;13.60;99.90;;;;;;5010560;28;20107;-72
2023/05/23 10:16:46;;;;;;;15.23;9.77;;;13.60;99.90;;;;;;4957231;28;20096;-73
2023/05/23 10:19:25;;;;;;;14.73;11.27;;;13.50;99.90;;;;;;4994406;28;20046;-73
2023/05/23 10:22:02;;;;;;;13.27;9.55;;;13.50;99.90;;;;;;4991919;28;20092;-73
2023/05/23 10:24:28;;;;;;;15.52;11.25;;;13.40;99.90;;;;;;4993869;28;20048;-74
2023/05/23 10:26:54;;;;;;;17.92;11.63;;;13.40;99.90;;;;;;4945995;28;20446;-73
2023/05/23 10:29:22;;;;;;;15.43;11.95;;;13.30;99.90;;;;;;4975982;28;20045;-73
2023/05/23 10:31:50;;;;;;;15.25;12.38;;;13.40;99.90;;;;;;4951196;28;20073;-73
2023/05/23 10:34:40;;;;;;;15.60;10.50;;;13.40;99.90;;;;;;4982046;28;20092;-73
2023/05/23 10:37:06;;;;;;;19.95;13.25;;;13.20;99.90;;;;;;4991849;28;20501;-73
2023/05/23 10:39:38;;;;;;;21.55;13.75;;;13.20;99.90;;;;;;4970196;28;20053;-72
2023/05/23 10:42:16;;;;;;;20.60;13.20;;;13.20;99.90;;;;;;5014789;28;20054;-73
2023/05/23 10:44:42;;;;;;;25.42;15.05;;;13.10;99.90;;;;;;4983129;28;20046;-73
2023/05/23 10:47:08;;;;;;;22.77;14.10;;;13.10;99.90;;;;;;4992469;28;20340;-73
2023/05/23 10:49:44;;;;;;;25.10;14.95;;;13.10;99.90;;;;;;4973020;28;20060;-73
2023/05/23 10:52:11;;;;;;;26.20;14.57;;;13.00;99.90;;;;;;4944134;28;20495;-73
2023/05/23 10:54:42;;;;;;;27.60;16.27;;;13.00;99.90;;;;;;4964640;28;20053;-73
2023/05/23 10:57:09;;;;;;;25.95;16.83;;;13.00;99.90;;;;;;5005774;28;20445;-72
2023/05/23 10:59:36;;;;;;;29.35;16.90;;;12.90;99.90;;;;;;4976740;28;20060;-72
2023/05/23 11:02:02;;;;;;;30.75;16.45;;;12.90;99.90;;;;;;4966790;28;20124;-73
2023/05/23 11:04:28;;;;;;;23.80;14.90;;;12.90;99.90;;;;;;4987492;28;20491;-71
2023/05/23 11:06:56;;;;;;;27.40;15.05;;;12.90;99.90;;;;;;5008371;28;20046;-72
2023/05/23 11:09:22;;;;;;;30.83;14.80;;;12.80;99.90;;;;;;4981768;28;20534;-72
2023/05/23 11:12:04;;;;;;;27.67;15.32;;;12.90;99.90;;;;;;4949464;28;20133;-72
2023/05/23 11:14:36;;;;;;;26.02;13.90;;;12.90;99.90;;;;;;4996707;28;20042;-72
2023/05/23 11:17:11;;;;;;;21.08;13.70;;;12.80;99.90;;;;;;4998614;28;20482;-72
2023/05/23 11:20:05;;;;;;;24.05;12.15;;;12.80;99.90;;;;;;4997321;28;20445;-72
2023/05/23 11:22:34;;;;;;;19.10;10.15;;;12.70;99.90;;;;;;4968583;28;20104;-72
2023/05/23 11:25:01;;;;;;;20.88;10.82;;;12.60;99.90;;;;;;4968990;28;20756;-73
2023/05/23 11:27:35;;;;;;;18.13;9.87;;;12.70;99.90;;;;;;4962155;28;20058;-73
2023/05/23 11:30:02;;;;;;;18.10;9.60;;;12.60;99.90;;;;;;4965650;28;20057;-72
2023/05/23 11:32:30;;;;;;;16.60;9.43;;;12.50;99.90;;;;;;4975462;28;20051;-73
2023/05/23 11:35:02;;;;;;;19.48;10.85;;;12.50;99.90;;;;;;4955255;28;20284;-72
2023/05/23 11:37:29;;;;;;;17.35;9.70;;;12.50;99.90;;;;;;4968493;28;20133;-73
2023/05/23 11:39:55;;;;;;;25.17;10.60;;;12.50;99.90;;;;;;5006612;28;20491;-73
2023/05/23 11:42:23;;;;;;;18.77;10.48;;;12.50;99.90;;;;;;4969976;28;20146;-73
2023/05/23 11:44:52;;;;;;;21.45;10.35;;;12.40;99.90;;;;;;4975673;28;20054;-73
2023/05/23 11:47:18;;;;;;;15.63;9.55;;;12.30;99.90;;;;;;4972726;28;20042;-74
2023/05/23 11:49:45;;;;;;;20.05;11.07;;;12.20;99.90;;;;;;4958712;28;20047;-73
2023/05/23 11:52:11;;;;;;;17.52;9.68;;;12.30;99.90;;;;;;4967230;28;20050;-73
2023/05/23 11:54:42;;;;;;;17.50;9.07;;;12.30;99.90;;;;;;4982307;28;20043;-73
2023/05/23 11:57:08;;;;;;;17.50;9.07;;;12.30;99.90;;;;;;4984879;28;20042;-74
2023/05/23 11:59:34;;;;;;;18.27;9.23;;;12.30;99.90;;;;;;4937904;28;20082;-74
2023/05/23 12:02:02;;;;;;;15.23;7.80;;;12.20;99.90;;;;;;4975705;28;20140;-73
2023/05/23 12:04:27;;;;;;;14.13;8.32;;;12.10;99.90;;;;;;4968660;28;20046;-73
2023/05/23 12:06:53;;;;;;;15.27;7.38;;;12.20;99.90;;;;;;4962009;28;20039;-74
2023/05/23 12:09:19;;;;;;;13.45;7.35;;;12.00;99.90;;;;;;4976477;28;20146;-73
2023/05/23 12:11:45;;;;;;;17.23;7.40;;;12.10;99.90;;;;;;4942550;28;20046;-73
2023/05/23 12:14:15;;;;;;;14.57;7.03;;;12.10;99.90;;;;;;4978611;28;20046;-73
2023/05/23 12:16:45;;;;;;;17.33;7.63;;;12.10;99.90;;;;;;4945854;28;20046;-73
2023/05/23 12:19:13;;;;;;;12.57;7.00;;;12.10;99.90;;;;;;4956329;28;20125;-73
2023/05/23 12:21:45;;;;;;;16.27;6.73;;;12.10;99.90;;;;;;4939932;28;20130;-73
2023/05/23 12:24:29;;;;;;;16.52;8.05;;;12.10;99.90;;;;;;4984803;28;20045;-73
2023/05/23 12:26:58;;;;;;;22.75;7.63;;;12.00;99.90;;;;;;4949899;28;20049;-73
2023/05/23 12:29:33;;;;;;;20.77;8.13;;;12.00;99.90;;;;;;4982166;28;20065;-74
2023/05/23 12:32:02;;;;;;;16.25;7.82;;;12.10;99.90;;;;;;4976240;28;20077;-73
2023/05/23 12:34:27;;;;;;;20.73;9.43;;;12.00;99.90;;;;;;4973454;28;20061;-73